Time;durP1;ratioP1;P1;durP2;ratioP2;P2;SDS_P1;SDS_P2;PMS_P1;PMS_P2;Temp;Humidity;BMP_temperature;BMP_pressure;BME280_temperature;BME280_humidity;BME280_pressure;Samples;Min_cycle;Max_cycle;Signal;HPM_P1;HPM_P2
2022/01/26 00:07:24;;;;;;;24.15;9.88;;;4.80;99.90;;;;;;4893106;29;20053;-59
2022/01/26 00:09:52;;;;;;;25.83;11.13;;;4.70;99.90;;;;;;4893314;29;20075;-60
2022/01/26 00:12:20;;;;;;;26.80;10.52;;;4.60;99.90;;;;;;4893499;29;20052;-61
2022/01/26 00:14:48;;;;;;;25.50;10.02;;;4.50;99.90;;;;;;4891996;29;20053;-60
2022/01/26 00:17:16;;;;;;;26.38;10.00;;;4.50;99.90;;;;;;4893333;29;20048;-60
2022/01/26 00:19:54;;;;;;;30.50;11.73;;;4.40;99.90;;;;;;4893257;29;20056;-61
2022/01/26 00:28:20;;;;;;;25.17;10.25;;;4.10;99.90;;;;;;4874354;29;20062;-60
2022/01/26 00:38:59;;;;;;;23.88;10.48;;;3.50;99.90;;;;;;4892983;29;20049;-61
2022/01/26 00:41:36;;;;;;;27.40;9.53;;;3.50;99.90;;;;;;4893232;29;20052;-64
2022/01/26 00:44:06;;;;;;;24.25;10.25;;;3.40;99.90;;;;;;4893039;29;20314;-61
2022/01/26 00:46:36;;;;;;;31.70;10.93;;;3.40;99.90;;;;;;4893022;29;20051;-61
2022/01/26 00:49:04;;;;;;;25.33;9.90;;;3.30;99.90;;;;;;4893052;29;20651;-60
2022/01/26 00:51:32;;;;;;;28.23;10.75;;;3.20;99.90;;;;;;4893038;29;20049;-60
2022/01/26 00:54:06;;;;;;;25.42;9.70;;;3.20;99.90;;;;;;4892796;29;20053;-59
2022/01/26 00:56:34;;;;;;;26.45;9.73;;;3.20;99.90;;;;;;4893122;29;20056;-62
2022/01/26 00:59:02;;;;;;;26.15;9.07;;;3.10;99.90;;;;;;4891765;29;20040;-60
2022/01/26 01:01:32;;;;;;;31.77;11.38;;;3.00;99.90;;;;;;4891957;29;20477;-60
2022/01/26 01:04:01;;;;;;;27.77;9.35;;;3.00;99.90;;;;;;4894990;29;20048;-61
2022/01/26 01:06:37;;;;;;;27.95;10.80;;;3.00;99.90;;;;;;4908993;29;20059;-63
2022/01/26 01:09:05;;;;;;;27.60;10.82;;;3.00;99.90;;;;;;4898150;29;20524;-64
2022/01/26 01:11:33;;;;;;;30.38;10.48;;;3.00;99.90;;;;;;4892809;29;20041;-67
2022/01/26 01:14:01;;;;;;;26.83;10.07;;;3.00;99.90;;;;;;4892888;29;20056;-66
2022/01/26 01:16:29;;;;;;;24.02;10.32;;;3.00;99.90;;;;;;4892912;29;20045;-64
2022/01/26 01:19:07;;;;;;;30.48;10.82;;;3.00;99.90;;;;;;4892923;29;20047;-64
2022/01/26 01:24:39;;;;;;;25.13;10.70;;;3.00;99.90;;;;;;4892565;29;20052;-64
2022/01/26 01:27:24;;;;;;;;;;;3.00;99.90;;;;;;4893134;29;20056;-59
2022/01/26 01:30:01;;;;;;;30.63;10.10;;;3.00;99.90;;;;;;4893160;29;20267;-60
2022/01/26 01:32:38;;;;;;;29.05;10.00;;;2.90;99.90;;;;;;4896026;29;20052;-61
2022/01/26 01:35:08;;;;;;;32.28;10.65;;;2.90;99.90;;;;;;4901338;29;20056;-62
2022/01/26 01:37:36;;;;;;;34.42;10.52;;;3.00;99.90;;;;;;4894904;29;20374;-61
2022/01/26 01:40:04;;;;;;;26.23;10.25;;;2.90;99.90;;;;;;4895880;29;20060;-64
2022/01/26 01:42:32;;;;;;;33.03;11.38;;;3.00;99.90;;;;;;4896026;29;20060;-60
2022/01/26 01:45:00;;;;;;;28.83;10.98;;;3.10;99.90;;;;;;4895860;29;20428;-61
2022/01/26 01:47:28;;;;;;;29.20;10.38;;;3.20;99.90;;;;;;4896239;29;20051;-61
2022/01/26 01:49:57;;;;;;;38.53;12.23;;;3.20;99.90;;;;;;4895239;29;20049;-60
2022/01/26 01:52:27;;;;;;;31.80;11.60;;;3.10;99.90;;;;;;4895682;29;20052;-63
2022/01/26 01:55:02;;;;;;;26.30;10.45;;;3.40;99.90;;;;;;4894495;29;20056;-60
2022/01/26 01:57:31;;;;;;;28.58;11.13;;;3.60;99.90;;;;;;4895477;29;20052;-60
2022/01/26 01:59:59;;;;;;;25.83;9.88;;;3.60;99.90;;;;;;4895730;29;20408;-64
2022/01/26 02:02:27;;;;;;;28.20;11.00;;;3.70;99.90;;;;;;4895636;29;20513;-60
2022/01/26 02:04:55;;;;;;;25.17;10.15;;;3.80;99.90;;;;;;4899951;29;20053;-59
2022/01/26 02:07:23;;;;;;;28.23;10.57;;;3.90;99.90;;;;;;4895377;29;20562;-62
2022/01/26 02:09:51;;;;;;;25.80;9.95;;;4.00;99.90;;;;;;4894540;29;20064;-60
2022/01/26 02:12:23;;;;;;;31.63;11.35;;;4.00;99.90;;;;;;4895581;29;20059;-61
2022/01/26 02:15:02;;;;;;;29.52;11.50;;;4.10;99.90;;;;;;4895169;29;20381;-60
2022/01/26 02:51:02;;;;;;;31.50;10.63;;;4.30;99.90;;;;;;4912186;29;20544;-62
2022/01/26 02:56:06;;;;;;;31.08;11.07;;;4.40;99.90;;;;;;4897889;29;20103;-64
2022/01/26 03:06:45;;;;;;;34.13;11.75;;;4.40;99.90;;;;;;4897541;29;20377;-64
2022/01/26 03:09:18;;;;;;;30.50;10.75;;;4.40;99.90;;;;;;4897704;29;20064;-63
2022/01/26 03:11:47;;;;;;;25.58;11.32;;;4.40;99.90;;;;;;4897582;29;20048;-62
2022/01/26 03:16:59;;;;;;;27.52;10.35;;;4.50;99.90;;;;;;4897682;29;20053;-61
2022/01/26 03:19:40;;;;;;;25.17;10.10;;;4.50;99.90;;;;;;4897403;29;20044;-61
2022/01/26 03:30:20;;;;;;;26.80;10.30;;;4.40;99.90;;;;;;4897376;29;20497;-61
2022/01/26 03:33:12;;;;;;;28.10;10.10;;;4.50;99.90;;;;;;4897156;29;20048;-60
2022/01/26 03:38:16;;;;;;;28.10;10.50;;;4.40;99.90;;;;;;4897048;29;20433;-66
2022/01/26 03:40:44;;;;;;;26.73;9.45;;;4.50;99.90;;;;;;4897253;29;20044;-65
2022/01/26 03:43:12;;;;;;;28.92;8.80;;;4.50;99.90;;;;;;4896950;29;20048;-62
2022/01/26 03:45:40;;;;;;;24.90;10.75;;;4.50;99.90;;;;;;4896998;29;20052;-64
2022/01/26 03:48:08;;;;;;;27.63;10.70;;;4.50;99.90;;;;;;4896848;29;20060;-66
2022/01/26 03:50:36;;;;;;;31.30;10.40;;;4.50;99.90;;;;;;4896873;29;20049;-65
2022/01/26 03:53:03;;;;;;;33.17;10.73;;;4.50;99.90;;;;;;4896516;29;20056;-64
2022/01/26 03:55:32;;;;;;;26.02;9.65;;;4.50;99.90;;;;;;4896979;29;20041;-66
2022/01/26 03:57:59;;;;;;;27.20;9.73;;;4.60;99.90;;;;;;4896195;29;20052;-63
2022/01/26 04:00:27;;;;;;;22.52;9.52;;;4.50;99.90;;;;;;4897327;29;20055;-66
2022/01/26 04:02:55;;;;;;;27.15;10.80;;;4.50;99.90;;;;;;4896717;29;20049;-63
2022/01/26 04:05:25;;;;;;;24.20;9.00;;;4.50;99.90;;;;;;4896578;29;20480;-62
2022/01/26 04:07:58;;;;;;;22.70;8.85;;;4.60;99.90;;;;;;4896800;29;20055;-62
2022/01/26 04:11:00;;;;;;;24.38;9.40;;;4.50;99.90;;;;;;4896737;29;20048;-61
2022/01/26 04:13:17;;;;;;;21.35;8.57;;;4.60;99.90;;;;;;4896449;29;20056;-62
2022/01/26 04:15:44;;;;;;;23.48;9.75;;;4.60;99.90;;;;;;4896501;29;20044;-64
2022/01/26 04:18:18;;;;;;;24.98;8.65;;;4.60;99.90;;;;;;4911133;29;20049;-63
2022/01/26 04:20:49;;;;;;;21.45;8.40;;;4.60;99.90;;;;;;4896616;29;20052;-59
2022/01/26 04:23:28;;;;;;;26.40;9.20;;;4.60;99.90;;;;;;4896481;29;20053;-61
2022/01/26 04:25:59;;;;;;;17.73;8.38;;;4.60;99.90;;;;;;4896354;29;20060;-59
2022/01/26 04:28:37;;;;;;;;;;;4.60;99.90;;;;;;4896825;29;20049;-62
2022/01/26 04:31:07;;;;;;;20.85;6.88;;;4.60;99.90;;;;;;4896450;29;20283;-59
2022/01/26 04:33:36;;;;;;;20.35;8.23;;;4.60;99.90;;;;;;4896373;29;20481;-62
2022/01/26 04:36:08;;;;;;;24.23;8.77;;;4.70;99.90;;;;;;4896401;29;20053;-59
2022/01/26 04:38:45;;;;;;;23.48;9.98;;;4.60;99.90;;;;;;4896269;29;20049;-60
2022/01/26 04:44:01;;;;;;;22.50;8.18;;;4.60;99.90;;;;;;4896288;29;20492;-61
2022/01/26 04:46:29;;;;;;;25.80;9.43;;;4.70;99.90;;;;;;4896401;29;20047;-62
2022/01/26 04:48:57;;;;;;;25.35;9.02;;;4.70;99.90;;;;;;4896470;29;20516;-64
2022/01/26 04:51:25;;;;;;;23.67;8.43;;;4.70;99.90;;;;;;4896223;29;20052;-59
2022/01/26 04:53:53;;;;;;;22.38;9.90;;;4.70;99.90;;;;;;4896344;29;20048;-59
2022/01/26 04:56:21;;;;;;;25.98;10.05;;;4.70;99.90;;;;;;4896255;29;20528;-59
2022/01/26 04:58:49;;;;;;;27.23;8.52;;;4.70;99.90;;;;;;4896349;29;20063;-60
2022/01/26 05:01:17;;;;;;;24.25;9.15;;;4.70;99.90;;;;;;4896306;29;20056;-60
2022/01/26 05:03:45;;;;;;;22.77;8.63;;;4.70;99.90;;;;;;4896089;29;20053;-59
2022/01/26 05:06:13;;;;;;;22.77;9.00;;;4.70;99.90;;;;;;4899115;29;20048;-60
2022/01/26 05:08:41;;;;;;;26.33;9.85;;;4.70;99.90;;;;;;4898651;29;20056;-60
2022/01/26 05:11:13;;;;;;;20.05;8.23;;;4.70;99.90;;;;;;4899697;29;20040;-62
2022/01/26 05:13:57;;;;;;;24.60;8.18;;;4.70;99.90;;;;;;4899641;29;20056;-62
2022/01/26 05:16:25;;;;;;;20.23;8.25;;;4.70;99.90;;;;;;4898520;29;20052;-63
2022/01/26 05:18:54;;;;;;;30.35;9.80;;;4.70;99.90;;;;;;4899490;29;20064;-60
2022/01/26 05:21:23;;;;;;;27.63;9.55;;;4.70;99.90;;;;;;4899443;29;20049;-60
2022/01/26 05:23:51;;;;;;;21.58;8.10;;;4.70;99.90;;;;;;4899520;29;20051;-61
2022/01/26 05:26:19;;;;;;;26.20;9.50;;;4.60;99.90;;;;;;4899504;29;20045;-62
2022/01/26 05:28:47;;;;;;;21.88;7.95;;;4.70;99.90;;;;;;4899307;29;20048;-62
2022/01/26 05:31:16;;;;;;;24.25;9.88;;;4.60;99.90;;;;;;4899320;29;20064;-65
2022/01/26 05:33:44;;;;;;;28.02;9.40;;;4.60;99.90;;;;;;4899359;29;20052;-62
2022/01/26 05:36:12;;;;;;;25.65;8.75;;;4.50;99.90;;;;;;4899310;29;20624;-63
2022/01/26 05:38:40;;;;;;;26.13;8.75;;;4.50;99.90;;;;;;4899200;29;20053;-63
2022/01/26 05:41:09;;;;;;;22.08;8.10;;;4.40;99.90;;;;;;4899334;29;20049;-59
2022/01/26 05:43:37;;;;;;;29.73;9.23;;;4.30;99.90;;;;;;4899138;29;20055;-59
2022/01/26 05:46:11;;;;;;;22.80;9.82;;;4.30;99.90;;;;;;4897856;29;20655;-59
2022/01/26 05:48:43;;;;;;;26.13;9.60;;;4.30;99.90;;;;;;4895786;29;20508;-61
2022/01/26 05:51:13;;;;;;;28.42;11.32;;;4.30;99.90;;;;;;4910162;29;20057;-59
2022/01/26 05:53:42;;;;;;;27.98;9.57;;;4.30;99.90;;;;;;4895743;29;20052;-59
2022/01/26 05:56:11;;;;;;;26.83;10.18;;;4.30;99.90;;;;;;4895871;29;20092;-66
2022/01/26 05:58:38;;;;;;;28.80;9.63;;;4.30;99.90;;;;;;4895920;29;20055;-64
2022/01/26 06:01:06;;;;;;;26.70;10.95;;;4.30;99.90;;;;;;4895622;29;20048;-64
2022/01/26 06:03:35;;;;;;;29.35;9.80;;;4.30;99.90;;;;;;4893449;29;20400;-60
2022/01/26 06:06:03;;;;;;;26.48;10.43;;;4.30;99.90;;;;;;4891436;29;20048;-58
2022/01/26 06:08:32;;;;;;;24.83;8.55;;;4.30;99.90;;;;;;4892207;29;20052;-59
2022/01/26 06:11:01;;;;;;;24.90;9.57;;;4.30;99.90;;;;;;4894487;29;20048;-63
2022/01/26 06:13:30;;;;;;;26.42;11.27;;;4.30;99.90;;;;;;4892110;29;20048;-61
2022/01/26 06:15:58;;;;;;;28.60;10.23;;;4.30;99.90;;;;;;4891324;29;20052;-63
2022/01/26 06:18:26;;;;;;;32.10;10.30;;;4.30;99.90;;;;;;4898203;29;20057;-62
2022/01/26 06:20:55;;;;;;;27.85;9.90;;;4.30;99.90;;;;;;4894673;29;20210;-65
2022/01/26 06:23:25;;;;;;;30.17;10.27;;;4.30;99.90;;;;;;4892071;29;20597;-60
2022/01/26 06:25:54;;;;;;;;;;;4.30;99.90;;;;;;4892657;29;20059;-60
2022/01/26 06:28:27;;;;;;;30.85;10.15;;;4.30;99.90;;;;;;4895025;29;20460;-60
2022/01/26 06:30:59;;;;;;;23.85;8.77;;;4.30;99.90;;;;;;4894553;29;20390;-62
2022/01/26 06:33:28;;;;;;;29.05;11.43;;;4.40;99.90;;;;;;4891763;29;20052;-59
2022/01/26 06:35:57;;;;;;;30.35;10.05;;;4.20;99.90;;;;;;4892800;29;20052;-64
2022/01/26 06:38:28;;;;;;;32.47;10.30;;;4.20;99.90;;;;;;4895076;29;20052;-66
2022/01/26 06:40:58;;;;;;;24.63;9.10;;;4.20;99.90;;;;;;4895341;29;20052;-62
2022/01/26 06:43:29;;;;;;;;;;;4.30;99.90;;;;;;4893986;29;20543;-61
2022/01/26 06:46:02;;;;;;;26.50;9.55;;;4.20;99.90;;;;;;4893880;29;20386;-60
2022/01/26 06:51:07;;;;;;;21.08;8.25;;;4.20;99.90;;;;;;4891406;29;20508;-59
2022/01/26 06:53:35;;;;;;;20.85;8.18;;;4.20;99.90;;;;;;4890060;29;20389;-59
2022/01/26 06:56:03;;;;;;;21.45;8.35;;;4.20;99.90;;;;;;4892235;29;20478;-61
2022/01/26 06:58:31;;;;;;;25.80;8.70;;;4.20;99.90;;;;;;4894926;29;20073;-58
2022/01/26 07:00:59;;;;;;;19.55;8.13;;;4.30;99.90;;;;;;4893134;29;20511;-59
2022/01/26 07:03:29;;;;;;;16.95;6.80;;;4.30;99.90;;;;;;4891557;29;20047;-63
2022/01/26 07:05:57;;;;;;;22.75;7.07;;;4.30;99.90;;;;;;4892050;29;20048;-60
2022/01/26 07:08:25;;;;;;;21.42;7.47;;;4.40;99.90;;;;;;4893011;29;20060;-64
2022/01/26 07:10:53;;;;;;;21.48;8.02;;;4.40;99.90;;;;;;4894248;29;20392;-62
2022/01/26 07:13:23;;;;;;;12.35;5.85;;;4.40;99.90;;;;;;4892954;29;20053;-60
2022/01/26 07:21:27;;;;;;;14.05;6.40;;;4.30;99.90;;;;;;4894144;29;20048;-61
2022/01/26 07:23:57;;;;;;;12.95;5.13;;;4.30;99.90;;;;;;4909337;29;20048;-61
2022/01/26 07:26:29;;;;;;;;;;;4.30;99.90;;;;;;4913320;29;20075;-63
2022/01/26 07:29:02;;;;;;;19.40;6.18;;;4.20;99.90;;;;;;4910505;29;19942;-61
2022/01/26 07:31:30;;;;;;;18.10;6.53;;;4.20;99.90;;;;;;4909626;29;20056;-63
2022/01/26 07:33:58;;;;;;;19.67;7.05;;;4.10;99.90;;;;;;4908266;29;20059;-62
2022/01/26 07:36:27;;;;;;;12.25;6.00;;;4.10;99.90;;;;;;4909739;29;20040;-60
2022/01/26 07:39:05;;;;;;;14.73;6.35;;;4.10;99.90;;;;;;4895319;29;20064;-59
2022/01/26 07:41:34;;;;;;;17.98;6.85;;;4.10;99.90;;;;;;4893702;29;20049;-59
2022/01/26 07:44:02;;;;;;;16.67;6.07;;;4.10;99.90;;;;;;4893642;29;20051;-59
2022/01/26 07:46:31;;;;;;;19.80;6.93;;;4.10;99.90;;;;;;4893735;29;20473;-59
2022/01/26 07:49:00;;;;;;;15.95;6.90;;;4.20;99.90;;;;;;4893988;29;20044;-60
2022/01/26 07:51:28;;;;;;;17.70;6.43;;;4.10;99.90;;;;;;4893759;29;20063;-60
2022/01/26 07:53:56;;;;;;;18.20;6.60;;;4.10;99.90;;;;;;4893358;29;20052;-58
2022/01/26 07:56:24;;;;;;;19.75;7.93;;;4.10;99.90;;;;;;4893045;29;20072;-58
2022/01/26 07:58:52;;;;;;;16.92;6.20;;;4.00;99.90;;;;;;4893373;29;20052;-60
2022/01/26 08:01:20;;;;;;;20.00;7.78;;;4.00;99.90;;;;;;4892721;29;20202;-61
2022/01/26 08:03:48;;;;;;;20.50;6.55;;;3.90;99.90;;;;;;4891636;29;20056;-60
2022/01/26 08:06:18;;;;;;;19.17;7.03;;;3.90;99.90;;;;;;4909213;29;20056;-59
2022/01/26 08:08:46;;;;;;;18.92;7.53;;;3.80;99.90;;;;;;4898513;29;20052;-63
2022/01/26 08:11:14;;;;;;;22.52;7.88;;;3.80;99.90;;;;;;4892908;29;20051;-60
2022/01/26 08:13:41;;;;;;;22.33;7.50;;;3.80;99.90;;;;;;4891979;29;20053;-60
2022/01/26 08:16:09;;;;;;;24.00;6.57;;;3.80;99.90;;;;;;4893512;29;20047;-61
2022/01/26 08:18:38;;;;;;;17.58;6.95;;;3.80;99.90;;;;;;4892403;29;20048;-60
2022/01/26 08:21:06;;;;;;;20.58;8.98;;;3.80;99.90;;;;;;4906645;29;20060;-61
2022/01/26 08:23:36;;;;;;;24.25;8.15;;;3.90;99.90;;;;;;4891495;29;20064;-63
2022/01/26 08:26:04;;;;;;;;;;;3.90;99.90;;;;;;4890943;29;20052;-63
2022/01/26 08:28:37;;;;;;;17.52;8.23;;;3.90;99.90;;;;;;4891310;29;19923;-64
2022/01/26 08:31:05;;;;;;;20.23;8.75;;;4.00;99.90;;;;;;4889005;29;20056;-61
2022/01/26 08:33:34;;;;;;;24.65;8.70;;;4.00;99.90;;;;;;4888604;29;20111;-63
2022/01/26 08:36:02;;;;;;;23.85;8.98;;;4.00;99.90;;;;;;4890030;29;20040;-66
2022/01/26 08:38:29;;;;;;;28.45;9.27;;;4.00;99.90;;;;;;4893187;29;20052;-62
2022/01/26 08:40:58;;;;;;;23.17;9.05;;;4.10;99.90;;;;;;4896967;29;20064;-64
2022/01/26 08:43:25;;;;;;;22.38;7.03;;;4.10;99.90;;;;;;4895634;29;20048;-68
2022/01/26 08:45:54;;;;;;;21.88;8.02;;;4.10;99.90;;;;;;4896922;29;20064;-63
2022/01/26 08:48:23;;;;;;;29.85;9.07;;;4.10;99.90;;;;;;4895414;29;20049;-62
2022/01/26 08:50:51;;;;;;;23.88;8.82;;;4.20;99.90;;;;;;4897178;29;20401;-63
2022/01/26 08:53:19;;;;;;;22.83;8.65;;;4.20;99.90;;;;;;4896763;29;20048;-59
2022/01/26 08:55:47;;;;;;;21.92;8.35;;;4.20;99.90;;;;;;4896946;29;20065;-62
2022/01/26 08:58:16;;;;;;;25.63;8.90;;;4.30;99.90;;;;;;4896549;29;20485;-60
2022/01/26 09:00:43;;;;;;;22.92;7.97;;;4.30;99.90;;;;;;4896795;29;20477;-65
2022/01/26 09:03:15;;;;;;;24.88;9.13;;;4.40;99.90;;;;;;4896463;29;20048;-66
2022/01/26 09:05:44;;;;;;;23.92;8.30;;;4.40;99.90;;;;;;4895747;29;20055;-61
2022/01/26 09:08:12;;;;;;;22.85;8.98;;;4.50;99.90;;;;;;4896459;29;20385;-68
2022/01/26 09:10:41;;;;;;;18.20;8.30;;;4.50;99.90;;;;;;4895594;29;20092;-66
2022/01/26 09:13:09;;;;;;;22.08;8.98;;;4.50;99.90;;;;;;4896536;29;20063;-65
2022/01/26 09:15:39;;;;;;;23.30;7.32;;;4.60;99.90;;;;;;4896471;29;20056;-59
2022/01/26 09:18:13;;;;;;;23.88;8.70;;;4.60;99.90;;;;;;4896121;29;20060;-59
2022/01/26 09:20:41;;;;;;;18.80;7.50;;;4.70;99.90;;;;;;4896041;29;20064;-60
2022/01/26 09:23:09;;;;;;;19.23;7.82;;;4.70;99.90;;;;;;4896020;29;20045;-61
2022/01/26 09:25:37;;;;;;;21.95;8.73;;;4.70;99.90;;;;;;4896406;29;20049;-60
2022/01/26 09:28:05;;;;;;;18.33;8.38;;;4.80;99.90;;;;;;4895767;29;20524;-59
2022/01/26 09:30:33;;;;;;;10.07;4.30;;;4.80;99.90;;;;;;4896129;29;20091;-62
2022/01/26 09:33:00;;;;;;;21.73;8.48;;;4.80;99.90;;;;;;4896386;29;20813;-60
2022/01/26 09:35:28;;;;;;;18.65;7.60;;;4.90;99.90;;;;;;4895833;29;20048;-61
2022/01/26 09:37:56;;;;;;;21.00;8.30;;;4.90;99.90;;;;;;4892516;29;20052;-59
2022/01/26 09:40:24;;;;;;;20.48;8.65;;;5.00;99.90;;;;;;4892659;29;20056;-61
2022/01/26 09:42:54;;;;;;;21.60;8.10;;;5.00;99.90;;;;;;4896075;29;20044;-61
2022/01/26 09:45:21;;;;;;;23.48;8.68;;;5.10;99.90;;;;;;4896202;29;20063;-58
2022/01/26 09:47:49;;;;;;;21.50;7.82;;;5.10;99.90;;;;;;4895775;29;20060;-63
2022/01/26 09:50:33;;;;;;;17.17;8.57;;;5.20;99.90;;;;;;4894099;29;20052;-62
2022/01/26 09:53:02;;;;;;;16.85;7.28;;;5.20;99.90;;;;;;4887816;29;20495;-61
2022/01/26 09:55:30;;;;;;;18.35;7.05;;;5.20;99.90;;;;;;4914777;29;20059;-61
2022/01/26 09:57:58;;;;;;;26.13;8.82;;;5.20;99.90;;;;;;4914612;29;20044;-61
2022/01/26 10:00:28;;;;;;;19.92;6.80;;;5.30;99.90;;;;;;4914580;29;20404;-59
2022/01/26 10:02:58;;;;;;;15.93;6.38;;;5.30;99.90;;;;;;4913061;29;20531;-60
2022/01/26 10:05:43;;;;;;;19.85;6.82;;;5.30;99.90;;;;;;4904460;29;20404;-59
2022/01/26 10:08:26;;;;;;;24.48;7.25;;;5.40;99.90;;;;;;4902718;29;20496;-58
2022/01/26 10:17:19;;;;;;;15.13;7.28;;;5.60;99.90;;;;;;4914378;29;20044;-65
2022/01/26 10:19:33;;;;;;;15.07;5.90;;;5.60;99.90;;;;;;4912084;29;20052;-64
2022/01/26 10:22:01;;;;;;;18.60;7.15;;;5.70;99.90;;;;;;4895114;29;20044;-59
2022/01/26 10:24:29;;;;;;;20.95;6.13;;;5.70;99.90;;;;;;4895459;29;20052;-59
2022/01/26 10:26:59;;;;;;;16.48;6.03;;;5.70;99.90;;;;;;4894827;29;20063;-59
2022/01/26 10:29:33;;;;;;;;;;;5.80;99.90;;;;;;4894376;29;20051;-60
2022/01/26 10:32:14;;;;;;;14.68;7.03;;;5.80;99.90;;;;;;4894143;29;19924;-61
2022/01/26 10:34:42;;;;;;;15.23;6.88;;;5.90;99.90;;;;;;4895053;29;20057;-59
2022/01/26 10:37:10;;;;;;;16.83;6.07;;;5.90;99.90;;;;;;4893954;29;20064;-60
2022/01/26 10:39:45;;;;;;;14.25;6.78;;;6.00;99.90;;;;;;4894984;29;20045;-59
2022/01/26 10:42:19;;;;;;;15.82;6.35;;;6.00;99.90;;;;;;4894649;29;20048;-61
2022/01/26 10:47:33;;;;;;;19.23;6.75;;;6.10;99.90;;;;;;4895058;29;20481;-62
2022/01/26 10:53:12;;;;;;;16.05;6.95;;;6.30;99.90;;;;;;4894409;29;20068;-59
2022/01/26 10:55:40;;;;;;;24.05;7.13;;;6.40;99.90;;;;;;4894809;29;20049;-61
2022/01/26 10:58:09;;;;;;;18.77;7.07;;;6.50;99.90;;;;;;4893578;29;20057;-64
2022/01/26 11:00:41;;;;;;;15.43;6.82;;;6.50;99.90;;;;;;4894412;29;20079;-60
2022/01/26 11:03:10;;;;;;;14.40;4.85;;;6.60;99.90;;;;;;4893474;29;20400;-60
2022/01/26 11:05:38;;;;;;;14.88;6.88;;;6.60;99.90;;;;;;4893986;29;20048;-62
2022/01/26 11:08:09;;;;;;;19.23;6.57;;;6.80;99.90;;;;;;4894556;29;20044;-67
2022/01/26 11:10:39;;;;;;;17.40;6.80;;;6.90;99.90;;;;;;4894600;29;20053;-64
2022/01/26 11:13:07;;;;;;;12.48;5.45;;;7.00;99.90;;;;;;4894022;29;20529;-60
2022/01/26 11:15:35;;;;;;;16.83;5.53;;;7.10;99.90;;;;;;4894398;29;20056;-65
2022/01/26 11:18:19;;;;;;;8.77;4.60;;;7.20;99.90;;;;;;4893352;29;20048;-59
2022/01/26 11:20:53;;;;;;;13.43;4.88;;;7.40;99.90;;;;;;4890862;29;20044;-66
2022/01/26 11:23:37;;;;;;;10.95;4.13;;;7.50;99.90;;;;;;4891682;29;20041;-61
2022/01/26 11:26:05;;;;;;;15.65;5.00;;;7.70;99.90;;;;;;4893428;29;20063;-66
2022/01/26 11:28:44;;;;;;;10.18;3.58;;;7.80;99.90;;;;;;4892731;29;20053;-61
2022/01/26 11:31:16;;;;;;;4.97;2.60;;;8.00;99.90;;;;;;4894261;29;20041;-66
2022/01/26 11:34:04;;;;;;;12.27;3.63;;;8.10;99.90;;;;;;4893897;29;20060;-66
2022/01/26 11:36:32;;;;;;;11.55;4.30;;;8.30;99.90;;;;;;4894105;29;20055;-67
2022/01/26 11:47:17;;;;;;;12.40;5.22;;;8.70;99.90;;;;;;4894731;29;20067;-65
2022/01/26 11:49:46;;;;;;;15.50;4.25;;;9.00;99.90;;;;;;4894086;29;20055;-57
2022/01/26 11:52:29;;;;;;;11.43;4.10;;;9.20;99.90;;;;;;4892696;29;20049;-61
2022/01/26 11:54:59;;;;;;;15.38;5.18;;;9.30;99.90;;;;;;4893690;29;20308;-61
2022/01/26 11:57:50;;;;;;;16.42;5.45;;;9.40;99.90;;;;;;4893385;29;20052;-57
2022/01/26 12:00:41;;;;;;;15.05;5.50;;;9.60;99.90;;;;;;4893440;29;20063;-61
2022/01/26 12:03:29;;;;;;;18.40;5.18;;;9.80;99.90;;;;;;4891553;29;20052;-57
2022/01/26 12:05:59;;;;;;;12.50;4.43;;;10.00;99.90;;;;;;4890113;29;20068;-58
2022/01/26 12:08:31;;;;;;;11.18;3.78;;;10.20;99.90;;;;;;4890470;29;20044;-60
2022/01/26 12:11:00;;;;;;;13.05;5.70;;;10.30;99.90;;;;;;4893425;29;20052;-60
2022/01/26 12:13:31;;;;;;;10.50;5.20;;;10.30;99.90;;;;;;4891624;29;20052;-59
2022/01/26 12:16:08;;;;;;;11.00;4.85;;;10.50;99.90;;;;;;4876977;29;20053;-60
2022/01/26 12:35:40;;;;;;;11.93;4.68;;;11.90;98.90;;;;;;4890424;29;20072;-62
2022/01/26 12:38:41;;;;;;;14.20;5.53;;;12.00;99.10;;;;;;4893285;29;20052;-67
2022/01/26 12:43:53;;;;;;;9.60;4.00;;;12.30;98.00;;;;;;4892826;29;20055;-58
2022/01/26 12:46:23;;;;;;;9.15;4.00;;;12.60;96.20;;;;;;4893423;29;20086;-57
2022/01/26 12:48:55;;;;;;;8.88;3.90;;;12.50;96.90;;;;;;4893088;29;20052;-58
2022/01/26 12:51:24;;;;;;;11.30;4.13;;;12.70;95.60;;;;;;4893463;29;20329;-57
2022/01/26 12:53:54;;;;;;;14.40;4.40;;;12.70;95.20;;;;;;4893187;29;20507;-58
2022/01/26 12:56:29;;;;;;;12.02;4.47;;;12.80;95.90;;;;;;4893108;29;20507;-57
2022/01/26 12:59:13;;;;;;;14.20;4.70;;;12.80;94.30;;;;;;4892949;29;20048;-58
2022/01/26 13:01:41;;;;;;;9.20;4.50;;;12.90;94.40;;;;;;4891639;29;20263;-63
2022/01/26 13:04:12;;;;;;;11.23;4.60;;;13.00;95.80;;;;;;4890019;29;20056;-64
2022/01/26 13:06:51;;;;;;;7.50;3.50;;;13.20;96.10;;;;;;4894213;29;20056;-59
2022/01/26 13:09:27;;;;;;;8.52;4.05;;;13.50;94.50;;;;;;4892922;29;20378;-59
2022/01/26 13:12:00;;;;;;;10.32;4.35;;;13.60;93.20;;;;;;4893129;29;20701;-59
2022/01/26 13:28:34;;;;;;;9.00;3.72;;;14.30;92.90;;;;;;4894851;29;20068;-58
2022/01/26 13:40:11;;;;;;;6.75;3.42;;;14.40;84.70;;;;;;4895953;29;20052;-66
2022/01/26 13:45:29;;;;;;;8.80;3.40;;;13.00;87.60;;;;;;4896042;29;20582;-63
2022/01/26 13:50:44;;;;;;;11.45;3.03;;;11.60;93.00;;;;;;4914749;29;20040;-67
2022/01/26 13:53:20;;;;;;;9.02;3.10;;;11.30;94.40;;;;;;4897914;29;20044;-61
2022/01/26 14:01:37;;;;;;;8.57;3.40;;;11.70;98.80;;;;;;4874200;29;20497;-66
2022/01/26 14:04:06;;;;;;;10.10;3.50;;;12.30;95.00;;;;;;4894783;29;20051;-64
2022/01/26 14:06:34;;;;;;;8.68;3.00;;;12.60;94.90;;;;;;4892701;29;20674;-67
2022/01/26 14:09:02;;;;;;;9.10;3.42;;;13.10;94.00;;;;;;4892806;29;20060;-67
2022/01/26 14:11:30;;;;;;;11.23;2.83;;;13.50;94.00;;;;;;4895526;29;20052;-67
2022/01/26 14:14:01;;;;;;;11.38;3.67;;;13.90;90.90;;;;;;4895395;29;20492;-66
2022/01/26 14:16:36;;;;;;;12.32;3.75;;;14.00;90.40;;;;;;4895563;29;20060;-68
2022/01/26 14:26:54;;;;;;;9.18;4.25;;;14.10;90.40;;;;;;4894973;29;20059;-61
2022/01/26 14:33:05;;;;;;;10.60;3.30;;;14.10;86.70;;;;;;4895133;29;20060;-64
2022/01/26 14:51:28;;;;;;;6.90;3.33;;;12.20;90.20;;;;;;4894884;29;20405;-60
2022/01/26 14:54:19;;;;;;;9.70;4.00;;;11.60;91.70;;;;;;4894702;29;20501;-59
2022/01/26 15:33:35;;;;;;;9.77;3.90;;;9.10;99.90;;;;;;4893939;29;20060;-62
2022/01/26 15:43:44;;;;;;;13.32;4.43;;;8.80;99.90;;;;;;4893637;29;20441;-58
2022/01/26 15:49:30;;;;;;;9.52;3.80;;;8.70;99.90;;;;;;4892933;29;20373;-57
2022/01/26 15:52:03;;;;;;;17.73;4.63;;;8.70;99.90;;;;;;4893732;29;20063;-59
2022/01/26 16:04:22;;;;;;;8.32;3.78;;;8.60;99.90;;;;;;4894392;29;20048;-58
2022/01/26 16:08:32;;;;;;;13.55;4.78;;;8.50;99.90;;;;;;4902582;29;20048;-58
2022/01/26 16:20:04;;;;;;;8.77;4.88;;;8.10;99.90;;;;;;4893335;29;20396;-59
2022/01/26 16:38:00;;;;;;;13.88;5.78;;;7.50;99.90;;;;;;4895304;29;20053;-66
2022/01/26 17:25:19;;;;;;;12.73;5.15;;;6.60;99.90;;;;;;4892964;29;20074;-61
2022/01/26 17:47:45;;;;;;;17.08;6.70;;;6.40;99.90;;;;;;4892818;29;20049;-58
2022/01/26 18:17:30;;;;;;;24.92;8.10;;;6.40;99.90;;;;;;4892160;29;20052;-57
2022/01/26 18:50:23;;;;;;;22.38;8.88;;;6.30;99.90;;;;;;4896528;29;20515;-64
2022/01/26 18:52:52;;;;;;;19.63;8.52;;;6.30;99.90;;;;;;4891475;29;20048;-65
2022/01/26 18:55:20;;;;;;;16.83;7.80;;;6.30;99.90;;;;;;4874811;29;20041;-65
2022/01/26 18:57:48;;;;;;;19.35;8.52;;;6.40;99.90;;;;;;4891400;29;20056;-65
2022/01/26 19:00:17;;;;;;;19.35;7.57;;;6.40;99.90;;;;;;4894078;29;20052;-58
2022/01/26 19:02:45;;;;;;;22.80;8.07;;;6.50;99.90;;;;;;4880942;29;20051;-62
2022/01/26 19:05:13;;;;;;;18.10;7.35;;;6.50;99.90;;;;;;4894390;29;20052;-63
2022/01/26 19:07:41;;;;;;;19.20;8.32;;;6.50;99.90;;;;;;4901079;29;20059;-62
2022/01/26 19:10:09;;;;;;;16.40;7.30;;;6.50;99.90;;;;;;4894415;29;20052;-64
2022/01/26 19:12:39;;;;;;;14.15;6.50;;;6.50;99.90;;;;;;4905655;29;20059;-62
2022/01/26 19:15:11;;;;;;;15.90;7.82;;;6.40;99.90;;;;;;4894038;29;20492;-65
2022/01/26 19:17:49;;;;;;;15.35;7.47;;;6.50;99.90;;;;;;4895765;29;20051;-63
2022/01/26 19:25:32;;;;;;;14.50;6.32;;;6.70;99.90;;;;;;4900476;29;20424;-63
2022/01/26 19:32:00;;;;;;;15.05;6.40;;;6.90;99.90;;;;;;4891848;29;19934;-63
2022/01/26 19:40:05;;;;;;;14.65;6.40;;;6.90;99.90;;;;;;4892188;29;20067;-63
2022/01/26 19:44:52;;;;;;;14.70;6.55;;;7.00;99.90;;;;;;4896575;29;20459;-65
2022/01/26 19:50:44;;;;;;;13.25;4.78;;;7.00;99.90;;;;;;4892513;29;20051;-58
2022/01/26 19:53:06;;;;;;;14.07;4.90;;;7.00;99.90;;;;;;4891172;29;20508;-59
2022/01/26 19:55:34;;;;;;;12.83;5.27;;;7.00;99.90;;;;;;4890692;29;20040;-65
2022/01/26 19:58:04;;;;;;;12.80;6.22;;;7.10;99.90;;;;;;4893121;29;20769;-58
2022/01/26 20:00:43;;;;;;;15.23;4.47;;;7.10;99.90;;;;;;4890505;29;20060;-58
2022/01/26 20:03:12;;;;;;;14.43;6.00;;;7.10;99.90;;;;;;4888993;29;20052;-58